sensor_id;sensor_type;location;lat;lon;timestamp;temperature;humidity
51589;DHT22;37671;53.258;6.460;2022-10-26T05:03:23;9.50;99.90
51589;DHT22;37671;53.258;6.460;2022-10-26T05:05:50;9.60;99.90
51589;DHT22;37671;53.258;6.460;2022-10-26T05:08:16;9.70;99.90
51589;DHT22;37671;53.258;6.460;2022-10-26T05:10:41;9.80;99.90
51589;DHT22;37671;53.258;6.460;2022-10-26T05:13:08;9.70;99.90
51589;DHT22;37671;53.258;6.460;2022-10-26T05:15:34;9.80;99.90
51589;DHT22;37671;53.258;6.460;2022-10-26T05:18:03;9.90;99.90
51589;DHT22;37671;53.258;6.460;2022-10-26T05:20:32;9.90;99.90
51589;DHT22;37671;53.258;6.460;2022-10-26T05:22:59;9.90;99.90
51589;DHT22;37671;53.258;6.460;2022-10-26T05:25:26;10.00;99.90
51589;DHT22;37671;53.258;6.460;2022-10-26T05:27:56;10.10;99.90
51589;DHT22;37671;53.258;6.460;2022-10-26T05:30:22;10.10;99.90
51589;DHT22;37671;53.258;6.460;2022-10-26T05:32:55;10.20;99.90
51589;DHT22;37671;53.258;6.460;2022-10-26T05:35:21;10.20;99.90
51589;DHT22;37671;53.258;6.460;2022-10-26T05:37:46;10.20;99.90
51589;DHT22;37671;53.258;6.460;2022-10-26T05:40:12;10.20;99.90
51589;DHT22;37671;53.258;6.460;2022-10-26T05:42:38;10.20;99.90
51589;DHT22;37671;53.258;6.460;2022-10-26T05:45:04;10.20;99.90
51589;DHT22;37671;53.258;6.460;2022-10-26T05:47:29;10.20;99.90
51589;DHT22;37671;53.258;6.460;2022-10-26T05:49:55;10.30;99.90
51589;DHT22;37671;53.258;6.460;2022-10-26T05:52:20;10.30;99.90
51589;DHT22;37671;53.258;6.460;2022-10-26T05:54:46;10.30;99.90
51589;DHT22;37671;53.258;6.460;2022-10-26T05:57:12;10.40;99.90
51589;DHT22;37671;53.258;6.460;2022-10-26T05:59:38;10.40;99.90
51589;DHT22;37671;53.258;6.460;2022-10-26T06:04:43;10.40;99.90
51589;DHT22;37671;53.258;6.460;2022-10-26T06:07:21;10.40;99.90
51589;DHT22;37671;53.258;6.460;2022-10-26T06:09:47;10.40;99.90
51589;DHT22;37671;53.258;6.460;2022-10-26T06:12:13;10.50;99.90
51589;DHT22;37671;53.258;6.460;2022-10-26T06:14:40;10.50;99.90
51589;DHT22;37671;53.258;6.460;2022-10-26T06:17:28;10.50;99.90
51589;DHT22;37671;53.258;6.460;2022-10-26T06:20:35;11.00;99.90
51589;DHT22;37671;53.258;6.460;2022-10-26T06:23:35;10.50;99.90
51589;DHT22;37671;53.258;6.460;2022-10-26T06:31:12;10.50;99.90
51589;DHT22;37671;53.258;6.460;2022-10-26T06:33:39;10.60;99.90
51589;DHT22;37671;53.258;6.460;2022-10-26T06:36:21;10.50;99.90
51589;DHT22;37671;53.258;6.460;2022-10-26T06:38:49;10.60;99.90
51589;DHT22;37671;53.258;6.460;2022-10-26T06:41:18;10.60;99.90
51589;DHT22;37671;53.258;6.460;2022-10-26T06:43:44;10.70;99.90
51589;DHT22;37671;53.258;6.460;2022-10-26T06:46:53;10.60;99.90
51589;DHT22;37671;53.258;6.460;2022-10-26T06:52:00;10.60;99.90
51589;DHT22;37671;53.258;6.460;2022-10-26T06:54:52;10.70;99.90
51589;DHT22;37671;53.258;6.460;2022-10-26T06:57:21;10.60;99.90
51589;DHT22;37671;53.258;6.460;2022-10-26T06:59:55;10.60;99.90
51589;DHT22;37671;53.258;6.460;2022-10-26T07:02:22;10.60;99.90
51589;DHT22;37671;53.258;6.460;2022-10-26T07:04:48;10.60;99.90
51589;DHT22;37671;53.258;6.460;2022-10-26T07:07:17;11.80;99.90
51589;DHT22;37671;53.258;6.460;2022-10-26T07:09:43;11.40;99.90
51589;DHT22;37671;53.258;6.460;2022-10-26T07:12:08;10.60;99.90
51589;DHT22;37671;53.258;6.460;2022-10-26T07:14:34;10.70;99.90
51589;DHT22;37671;53.258;6.460;2022-10-26T07:17:00;10.70;99.90
51589;DHT22;37671;53.258;6.460;2022-10-26T07:19:25;10.70;99.90
51589;DHT22;37671;53.258;6.460;2022-10-26T07:21:53;10.70;99.90
51589;DHT22;37671;53.258;6.460;2022-10-26T07:24:21;10.70;99.90
51589;DHT22;37671;53.258;6.460;2022-10-26T07:26:47;10.70;99.90
51589;DHT22;37671;53.258;6.460;2022-10-26T07:29:13;10.80;99.90
51589;DHT22;37671;53.258;6.460;2022-10-26T07:31:40;11.20;99.90
51589;DHT22;37671;53.258;6.460;2022-10-26T07:34:06;10.90;99.90
51589;DHT22;37671;53.258;6.460;2022-10-26T07:36:32;11.80;99.90
51589;DHT22;37671;53.258;6.460;2022-10-26T07:38:58;12.30;99.90
51589;DHT22;37671;53.258;6.460;2022-10-26T07:41:23;11.10;99.90
51589;DHT22;37671;53.258;6.460;2022-10-26T07:43:49;11.70;99.90
51589;DHT22;37671;53.258;6.460;2022-10-26T07:46:15;11.20;99.90
51589;DHT22;37671;53.258;6.460;2022-10-26T07:48:41;11.30;99.90
51589;DHT22;37671;53.258;6.460;2022-10-26T07:51:07;11.30;99.90
51589;DHT22;37671;53.258;6.460;2022-10-26T07:53:33;11.40;99.90
51589;DHT22;37671;53.258;6.460;2022-10-26T07:55:58;11.50;99.90
51589;DHT22;37671;53.258;6.460;2022-10-26T07:58:24;11.50;99.90
51589;DHT22;37671;53.258;6.460;2022-10-26T08:00:52;11.70;99.90
51589;DHT22;37671;53.258;6.460;2022-10-26T08:03:18;12.10;99.90
51589;DHT22;37671;53.258;6.460;2022-10-26T08:05:47;11.60;99.90
51589;DHT22;37671;53.258;6.460;2022-10-26T08:08:16;11.70;99.90
51589;DHT22;37671;53.258;6.460;2022-10-26T08:10:46;11.50;99.90
51589;DHT22;37671;53.258;6.460;2022-10-26T08:13:13;11.80;99.90
51589;DHT22;37671;53.258;6.460;2022-10-26T08:15:39;11.80;99.90
51589;DHT22;37671;53.258;6.460;2022-10-26T08:18:05;12.00;99.90
51589;DHT22;37671;53.258;6.460;2022-10-26T08:20:31;12.00;99.90
51589;DHT22;37671;53.258;6.460;2022-10-26T08:22:58;13.10;99.90
51589;DHT22;37671;53.258;6.460;2022-10-26T08:25:24;12.10;99.90
51589;DHT22;37671;53.258;6.460;2022-10-26T08:27:50;12.10;99.90
51589;DHT22;37671;53.258;6.460;2022-10-26T08:30:15;12.50;99.90
51589;DHT22;37671;53.258;6.460;2022-10-26T08:32:41;12.30;99.90
51589;DHT22;37671;53.258;6.460;2022-10-26T08:35:08;13.10;99.90
51589;DHT22;37671;53.258;6.460;2022-10-26T08:37:34;12.50;99.90
51589;DHT22;37671;53.258;6.460;2022-10-26T08:40:00;12.70;99.90
51589;DHT22;37671;53.258;6.460;2022-10-26T08:42:42;12.80;99.90
51589;DHT22;37671;53.258;6.460;2022-10-26T08:45:30;13.00;99.90
51589;DHT22;37671;53.258;6.460;2022-10-26T08:48:04;13.20;99.90
51589;DHT22;37671;53.258;6.460;2022-10-26T08:50:33;13.40;99.90
51589;DHT22;37671;53.258;6.460;2022-10-26T08:53:12;13.60;99.90
51589;DHT22;37671;53.258;6.460;2022-10-26T08:55:44;13.70;99.90
51589;DHT22;37671;53.258;6.460;2022-10-26T08:58:16;15.00;99.90
51589;DHT22;37671;53.258;6.460;2022-10-26T09:00:46;13.90;99.90
51589;DHT22;37671;53.258;6.460;2022-10-26T09:03:14;13.90;99.90
51589;DHT22;37671;53.258;6.460;2022-10-26T09:24:56;14.60;99.90
51589;DHT22;37671;53.258;6.460;2022-10-26T09:27:34;14.80;99.90
51589;DHT22;37671;53.258;6.460;2022-10-26T09:30:13;14.90;99.90
51589;DHT22;37671;53.258;6.460;2022-10-26T09:32:58;15.20;99.90
51589;DHT22;37671;53.258;6.460;2022-10-26T09:35:26;15.10;99.90
51589;DHT22;37671;53.258;6.460;2022-10-26T09:38:21;15.40;99.90
51589;DHT22;37671;53.258;6.460;2022-10-26T09:43:24;15.60;99.90
51589;DHT22;37671;53.258;6.460;2022-10-26T09:45:52;15.70;99.90
51589;DHT22;37671;53.258;6.460;2022-10-26T09:48:26;15.90;99.90
51589;DHT22;37671;53.258;6.460;2022-10-26T09:50:53;15.80;99.90
51589;DHT22;37671;53.258;6.460;2022-10-26T09:53:21;15.90;99.90
51589;DHT22;37671;53.258;6.460;2022-10-26T09:55:48;16.40;99.90
51589;DHT22;37671;53.258;6.460;2022-10-26T09:58:23;16.70;99.90
51589;DHT22;37671;53.258;6.460;2022-10-26T10:00:50;16.30;99.90
51589;DHT22;37671;53.258;6.460;2022-10-26T10:03:25;16.70;99.90
51589;DHT22;37671;53.258;6.460;2022-10-26T10:05:51;16.30;99.90
51589;DHT22;37671;53.258;6.460;2022-10-26T10:08:25;16.50;99.90
51589;DHT22;37671;53.258;6.460;2022-10-26T10:11:08;16.60;99.90
51589;DHT22;37671;53.258;6.460;2022-10-26T10:13:37;16.70;99.90
51589;DHT22;37671;53.258;6.460;2022-10-26T10:16:21;17.20;99.90
51589;DHT22;37671;53.258;6.460;2022-10-26T10:18:55;16.80;99.90
51589;DHT22;37671;53.258;6.460;2022-10-26T10:21:31;16.80;99.90
51589;DHT22;37671;53.258;6.460;2022-10-26T10:23:57;16.90;99.90
51589;DHT22;37671;53.258;6.460;2022-10-26T10:26:23;17.00;99.90
51589;DHT22;37671;53.258;6.460;2022-10-26T10:28:59;17.10;99.90
51589;DHT22;37671;53.258;6.460;2022-10-26T10:31:28;17.00;99.90
51589;DHT22;37671;53.258;6.460;2022-10-26T10:33:54;17.10;99.90
51589;DHT22;37671;53.258;6.460;2022-10-26T10:36:22;16.80;99.90
51589;DHT22;37671;53.258;6.460;2022-10-26T10:38:51;17.60;99.90
51589;DHT22;37671;53.258;6.460;2022-10-26T10:41:23;16.60;99.90
51589;DHT22;37671;53.258;6.460;2022-10-26T10:46:23;16.50;99.90
51589;DHT22;37671;53.258;6.460;2022-10-26T10:49:06;16.30;99.90
51589;DHT22;37671;53.258;6.460;2022-10-26T10:51:40;16.20;99.90
51589;DHT22;37671;53.258;6.460;2022-10-26T10:54:30;17.10;99.90
51589;DHT22;37671;53.258;6.460;2022-10-26T10:57:23;16.10;99.90
51589;DHT22;37671;53.258;6.460;2022-10-26T11:00:07;16.10;99.90
51589;DHT22;37671;53.258;6.460;2022-10-26T11:11:35;16.40;99.90
51589;DHT22;37671;53.258;6.460;2022-10-26T11:14:03;16.50;99.90
51589;DHT22;37671;53.258;6.460;2022-10-26T11:16:43;16.70;99.90
51589;DHT22;37671;53.258;6.460;2022-10-26T11:19:23;17.00;99.90
51589;DHT22;37671;53.258;6.460;2022-10-26T11:21:53;17.10;99.90
51589;DHT22;37671;53.258;6.460;2022-10-26T11:26:54;17.10;99.90
51589;DHT22;37671;53.258;6.460;2022-10-26T11:29:39;17.30;99.90
51589;DHT22;37671;53.258;6.460;2022-10-26T11:40:21;17.60;99.90
51589;DHT22;37671;53.258;6.460;2022-10-26T11:43:17;17.80;99.90
51589;DHT22;37671;53.258;6.460;2022-10-26T11:45:44;18.00;99.90
51589;DHT22;37671;53.258;6.460;2022-10-26T11:48:21;18.70;99.90
51589;DHT22;37671;53.258;6.460;2022-10-26T11:50:51;18.20;99.90
51589;DHT22;37671;53.258;6.460;2022-10-26T11:53:20;18.20;99.90
51589;DHT22;37671;53.258;6.460;2022-10-26T11:55:52;18.30;99.90
51589;DHT22;37671;53.258;6.460;2022-10-26T11:58:22;18.50;99.90
51589;DHT22;37671;53.258;6.460;2022-10-26T12:00:51;18.50;99.90
51589;DHT22;37671;53.258;6.460;2022-10-26T12:03:22;18.40;99.90
51589;DHT22;37671;53.258;6.460;2022-10-26T12:05:50;18.40;99.90
51589;DHT22;37671;53.258;6.460;2022-10-26T12:08:22;18.50;99.90
51589;DHT22;37671;53.258;6.460;2022-10-26T12:10:54;18.40;99.90
51589;DHT22;37671;53.258;6.460;2022-10-26T12:13:34;18.70;99.90
51589;DHT22;37671;53.258;6.460;2022-10-26T12:19:04;18.50;99.90
51589;DHT22;37671;53.258;6.460;2022-10-26T12:21:31;18.50;99.90
51589;DHT22;37671;53.258;6.460;2022-10-26T12:24:01;18.50;99.90
51589;DHT22;37671;53.258;6.460;2022-10-26T12:26:57;18.40;99.90
51589;DHT22;37671;53.258;6.460;2022-10-26T12:31:53;18.40;99.90
51589;DHT22;37671;53.258;6.460;2022-10-26T12:34:25;18.40;99.90
51589;DHT22;37671;53.258;6.460;2022-10-26T12:37:21;18.40;99.90
51589;DHT22;37671;53.258;6.460;2022-10-26T12:39:46;18.30;99.90
51589;DHT22;37671;53.258;6.460;2022-10-26T13:00:30;18.10;99.90
51589;DHT22;37671;53.258;6.460;2022-10-26T13:06:07;18.20;99.90
51589;DHT22;37671;53.258;6.460;2022-10-26T13:08:41;18.30;99.90
51589;DHT22;37671;53.258;6.460;2022-10-26T13:11:27;18.10;99.90
51589;DHT22;37671;53.258;6.460;2022-10-26T13:13:57;17.90;99.90
51589;DHT22;37671;53.258;6.460;2022-10-26T13:16:26;18.00;99.90
51589;DHT22;37671;53.258;6.460;2022-10-26T13:18:52;18.00;99.90
51589;DHT22;37671;53.258;6.460;2022-10-26T13:21:19;17.90;99.90
51589;DHT22;37671;53.258;6.460;2022-10-26T13:26:20;17.50;99.90
51589;DHT22;37671;53.258;6.460;2022-10-26T13:28:55;17.40;99.90
51589;DHT22;37671;53.258;6.460;2022-10-26T13:34:14;17.60;99.90
51589;DHT22;37671;53.258;6.460;2022-10-26T13:36:49;17.40;99.90
51589;DHT22;37671;53.258;6.460;2022-10-26T13:39:25;18.00;99.90
51589;DHT22;37671;53.258;6.460;2022-10-26T13:41:53;17.30;99.90
51589;DHT22;37671;53.258;6.460;2022-10-26T13:44:47;17.30;99.90
51589;DHT22;37671;53.258;6.460;2022-10-26T13:49:52;17.40;99.90
51589;DHT22;37671;53.258;6.460;2022-10-26T13:52:34;17.50;99.90
51589;DHT22;37671;53.258;6.460;2022-10-26T13:55:20;17.40;99.90
51589;DHT22;37671;53.258;6.460;2022-10-26T13:58:16;17.50;99.90
51589;DHT22;37671;53.258;6.460;2022-10-26T14:01:12;17.40;99.90
51589;DHT22;37671;53.258;6.460;2022-10-26T14:03:41;17.30;99.90
51589;DHT22;37671;53.258;6.460;2022-10-26T14:06:16;17.30;99.90
51589;DHT22;37671;53.258;6.460;2022-10-26T14:08:45;17.30;99.90
51589;DHT22;37671;53.258;6.460;2022-10-26T14:11:18;17.20;99.90
51589;DHT22;37671;53.258;6.460;2022-10-26T14:13:49;17.20;99.90
51589;DHT22;37671;53.258;6.460;2022-10-26T14:16:16;17.20;99.90
51589;DHT22;37671;53.258;6.460;2022-10-26T14:18:47;17.20;99.90
51589;DHT22;37671;53.258;6.460;2022-10-26T14:21:19;17.20;99.90
51589;DHT22;37671;53.258;6.460;2022-10-26T14:23:47;17.20;99.90
51589;DHT22;37671;53.258;6.460;2022-10-26T14:28:48;17.30;99.90
51589;DHT22;37671;53.258;6.460;2022-10-26T14:31:27;17.30;99.90
51589;DHT22;37671;53.258;6.460;2022-10-26T14:33:54;17.20;99.90
51589;DHT22;37671;53.258;6.460;2022-10-26T14:36:25;17.20;99.90
51589;DHT22;37671;53.258;6.460;2022-10-26T14:38:54;17.10;99.90
51589;DHT22;37671;53.258;6.460;2022-10-26T14:41:21;17.30;99.90
51589;DHT22;37671;53.258;6.460;2022-10-26T14:43:47;17.00;99.90
51589;DHT22;37671;53.258;6.460;2022-10-26T14:46:14;17.00;99.90
51589;DHT22;37671;53.258;6.460;2022-10-26T14:48:40;17.10;99.90
51589;DHT22;37671;53.258;6.460;2022-10-26T14:51:15;16.90;99.90
51589;DHT22;37671;53.258;6.460;2022-10-26T14:53:46;16.90;99.90
51589;DHT22;37671;53.258;6.460;2022-10-26T14:56:16;16.80;99.90
51589;DHT22;37671;53.258;6.460;2022-10-26T14:58:42;16.70;99.90
51589;DHT22;37671;53.258;6.460;2022-10-26T15:03:40;16.60;99.90
51589;DHT22;37671;53.258;6.460;2022-10-26T15:09:27;16.60;99.90
51589;DHT22;37671;53.258;6.460;2022-10-26T15:11:53;16.60;99.90
51589;DHT22;37671;53.258;6.460;2022-10-26T15:14:19;16.70;99.90
51589;DHT22;37671;53.258;6.460;2022-10-26T15:16:49;16.50;99.90
51589;DHT22;37671;53.258;6.460;2022-10-26T15:19:15;17.20;99.90
51589;DHT22;37671;53.258;6.460;2022-10-26T15:21:47;16.50;99.90
51589;DHT22;37671;53.258;6.460;2022-10-26T15:26:44;16.50;99.90
51589;DHT22;37671;53.258;6.460;2022-10-26T15:31:59;16.30;99.90
51589;DHT22;37671;53.258;6.460;2022-10-26T15:34:24;16.30;99.90
51589;DHT22;37671;53.258;6.460;2022-10-26T15:36:50;16.20;99.90
51589;DHT22;37671;53.258;6.460;2022-10-26T15:39:15;16.10;99.90
51589;DHT22;37671;53.258;6.460;2022-10-26T15:41:44;16.20;99.90
51589;DHT22;37671;53.258;6.460;2022-10-26T15:44:12;16.20;99.90
51589;DHT22;37671;53.258;6.460;2022-10-26T15:46:40;16.20;99.90
51589;DHT22;37671;53.258;6.460;2022-10-26T15:49:06;16.10;99.90
51589;DHT22;37671;53.258;6.460;2022-10-26T15:51:32;16.10;99.90
51589;DHT22;37671;53.258;6.460;2022-10-26T15:53:59;16.10;99.90
51589;DHT22;37671;53.258;6.460;2022-10-26T15:56:26;16.10;99.90
51589;DHT22;37671;53.258;6.460;2022-10-26T15:58:52;16.00;99.90
51589;DHT22;37671;53.258;6.460;2022-10-26T16:01:19;16.00;99.90
51589;DHT22;37671;53.258;6.460;2022-10-26T16:03:45;15.90;99.90
51589;DHT22;37671;53.258;6.460;2022-10-26T16:06:19;15.70;99.90
51589;DHT22;37671;53.258;6.460;2022-10-26T16:08:50;15.70;99.90
51589;DHT22;37671;53.258;6.460;2022-10-26T16:11:17;15.60;99.90
51589;DHT22;37671;53.258;6.460;2022-10-26T16:13:43;15.60;99.90
51589;DHT22;37671;53.258;6.460;2022-10-26T16:16:12;15.60;99.90
51589;DHT22;37671;53.258;6.460;2022-10-26T16:18:38;15.50;99.90
51589;DHT22;37671;53.258;6.460;2022-10-26T16:21:03;15.60;99.90
51589;DHT22;37671;53.258;6.460;2022-10-26T16:23:29;15.50;99.90
51589;DHT22;37671;53.258;6.460;2022-10-26T16:25:55;15.50;99.90
51589;DHT22;37671;53.258;6.460;2022-10-26T16:28:20;15.50;99.90
51589;DHT22;37671;53.258;6.460;2022-10-26T16:30:46;15.40;99.90
51589;DHT22;37671;53.258;6.460;2022-10-26T16:33:11;15.40;99.90
51589;DHT22;37671;53.258;6.460;2022-10-26T16:35:37;15.30;99.90
51589;DHT22;37671;53.258;6.460;2022-10-26T16:38:02;15.30;99.90
51589;DHT22;37671;53.258;6.460;2022-10-26T16:40:28;15.30;99.90
51589;DHT22;37671;53.258;6.460;2022-10-26T16:42:53;15.40;99.90
51589;DHT22;37671;53.258;6.460;2022-10-26T16:45:19;15.60;99.90
51589;DHT22;37671;53.258;6.460;2022-10-26T16:47:45;15.40;99.90
51589;DHT22;37671;53.258;6.460;2022-10-26T16:50:11;15.40;99.90
51589;DHT22;37671;53.258;6.460;2022-10-26T16:52:37;15.40;99.90
51589;DHT22;37671;53.258;6.460;2022-10-26T16:55:03;15.40;99.90
51589;DHT22;37671;53.258;6.460;2022-10-26T16:57:29;15.30;99.90
51589;DHT22;37671;53.258;6.460;2022-10-26T16:59:55;15.60;99.90
51589;DHT22;37671;53.258;6.460;2022-10-26T17:02:20;15.20;99.90
51589;DHT22;37671;53.258;6.460;2022-10-26T17:04:46;15.20;99.90
51589;DHT22;37671;53.258;6.460;2022-10-26T17:07:11;15.10;99.90
51589;DHT22;37671;53.258;6.460;2022-10-26T17:09:37;15.00;99.90
51589;DHT22;37671;53.258;6.460;2022-10-26T17:12:02;15.00;99.90
51589;DHT22;37671;53.258;6.460;2022-10-26T17:14:28;14.90;99.90
51589;DHT22;37671;53.258;6.460;2022-10-26T17:16:54;14.90;99.90
51589;DHT22;37671;53.258;6.460;2022-10-26T17:19:19;14.80;99.90
51589;DHT22;37671;53.258;6.460;2022-10-26T17:21:45;14.80;99.90
51589;DHT22;37671;53.258;6.460;2022-10-26T17:24:10;14.70;99.90
51589;DHT22;37671;53.258;6.460;2022-10-26T17:26:36;14.70;99.90
51589;DHT22;37671;53.258;6.460;2022-10-26T17:29:01;14.70;99.90
51589;DHT22;37671;53.258;6.460;2022-10-26T17:31:27;14.70;99.90
51589;DHT22;37671;53.258;6.460;2022-10-26T17:33:52;14.60;99.90
51589;DHT22;37671;53.258;6.460;2022-10-26T17:36:19;14.60;99.90
51589;DHT22;37671;53.258;6.460;2022-10-26T17:38:46;14.60;99.90
51589;DHT22;37671;53.258;6.460;2022-10-26T17:41:12;14.60;99.90
51589;DHT22;37671;53.258;6.460;2022-10-26T17:43:39;14.60;99.90
51589;DHT22;37671;53.258;6.460;2022-10-26T17:46:05;14.60;99.90
51589;DHT22;37671;53.258;6.460;2022-10-26T17:48:31;14.60;99.90
51589;DHT22;37671;53.258;6.460;2022-10-26T17:51:00;15.10;99.90
51589;DHT22;37671;53.258;6.460;2022-10-26T17:53:27;14.40;99.90
51589;DHT22;37671;53.258;6.460;2022-10-26T17:56:00;14.40;99.90
51589;DHT22;37671;53.258;6.460;2022-10-26T17:58:26;14.40;99.90
51589;DHT22;37671;53.258;6.460;2022-10-26T18:00:53;14.40;99.90
51589;DHT22;37671;53.258;6.460;2022-10-26T18:03:19;15.40;99.90
51589;DHT22;37671;53.258;6.460;2022-10-26T18:05:48;14.50;99.90
51589;DHT22;37671;53.258;6.460;2022-10-26T18:08:14;14.40;99.90
51589;DHT22;37671;53.258;6.460;2022-10-26T18:10:45;14.50;99.90
51589;DHT22;37671;53.258;6.460;2022-10-26T18:13:10;14.50;99.90
51589;DHT22;37671;53.258;6.460;2022-10-26T18:15:35;14.40;99.90
51589;DHT22;37671;53.258;6.460;2022-10-26T18:18:01;15.40;99.90
51589;DHT22;37671;53.258;6.460;2022-10-26T18:20:27;14.40;99.90
51589;DHT22;37671;53.258;6.460;2022-10-26T18:22:52;14.30;99.90
51589;DHT22;37671;53.258;6.460;2022-10-26T18:25:18;14.30;99.90
51589;DHT22;37671;53.258;6.460;2022-10-26T18:27:43;14.20;99.90
51589;DHT22;37671;53.258;6.460;2022-10-26T18:30:09;14.20;99.90
51589;DHT22;37671;53.258;6.460;2022-10-26T18:32:35;14.20;99.90
51589;DHT22;37671;53.258;6.460;2022-10-26T18:35:00;14.20;99.90
51589;DHT22;37671;53.258;6.460;2022-10-26T18:37:26;14.30;99.90
51589;DHT22;37671;53.258;6.460;2022-10-26T18:39:52;14.20;99.90
51589;DHT22;37671;53.258;6.460;2022-10-26T18:42:17;14.20;99.90
51589;DHT22;37671;53.258;6.460;2022-10-26T18:44:43;14.10;99.90
51589;DHT22;37671;53.258;6.460;2022-10-26T18:47:08;14.10;99.90
51589;DHT22;37671;53.258;6.460;2022-10-26T18:49:34;14.30;99.90
51589;DHT22;37671;53.258;6.460;2022-10-26T18:51:59;14.10;99.90
51589;DHT22;37671;53.258;6.460;2022-10-26T18:54:25;14.10;99.90
51589;DHT22;37671;53.258;6.460;2022-10-26T18:56:50;14.00;99.90
51589;DHT22;37671;53.258;6.460;2022-10-26T18:59:16;15.10;99.90
51589;DHT22;37671;53.258;6.460;2022-10-26T19:01:41;14.10;99.90
51589;DHT22;37671;53.258;6.460;2022-10-26T19:04:08;14.10;99.90
51589;DHT22;37671;53.258;6.460;2022-10-26T19:06:35;14.30;99.90
51589;DHT22;37671;53.258;6.460;2022-10-26T19:09:01;14.00;99.90
51589;DHT22;37671;53.258;6.460;2022-10-26T19:11:28;14.00;99.90
51589;DHT22;37671;53.258;6.460;2022-10-26T19:13:53;13.90;99.90
51589;DHT22;37671;53.258;6.460;2022-10-26T19:16:20;13.90;99.90
51589;DHT22;37671;53.258;6.460;2022-10-26T19:18:46;13.90;99.90
51589;DHT22;37671;53.258;6.460;2022-10-26T19:21:12;14.00;99.90
51589;DHT22;37671;53.258;6.460;2022-10-26T19:23:45;13.90;99.90
51589;DHT22;37671;53.258;6.460;2022-10-26T19:26:12;13.90;99.90
51589;DHT22;37671;53.258;6.460;2022-10-26T19:28:38;14.00;99.90
51589;DHT22;37671;53.258;6.460;2022-10-26T19:31:05;13.90;99.90
51589;DHT22;37671;53.258;6.460;2022-10-26T19:33:31;14.00;99.90
51589;DHT22;37671;53.258;6.460;2022-10-26T19:35:58;14.10;99.90
51589;DHT22;37671;53.258;6.460;2022-10-26T19:38:24;14.10;99.90
51589;DHT22;37671;53.258;6.460;2022-10-26T19:40:57;14.10;99.90
51589;DHT22;37671;53.258;6.460;2022-10-26T19:43:23;14.00;99.90
51589;DHT22;37671;53.258;6.460;2022-10-26T19:45:48;14.00;99.90
51589;DHT22;37671;53.258;6.460;2022-10-26T19:48:14;13.90;99.90
51589;DHT22;37671;53.258;6.460;2022-10-26T19:50:39;13.90;99.90
51589;DHT22;37671;53.258;6.460;2022-10-26T19:53:05;13.80;99.90
51589;DHT22;37671;53.258;6.460;2022-10-26T19:55:31;13.80;99.90
51589;DHT22;37671;53.258;6.460;2022-10-26T19:57:56;13.80;99.90
51589;DHT22;37671;53.258;6.460;2022-10-26T20:00:22;13.80;99.90
51589;DHT22;37671;53.258;6.460;2022-10-26T20:02:47;14.40;99.90
51589;DHT22;37671;53.258;6.460;2022-10-26T20:05:13;13.80;99.90
51589;DHT22;37671;53.258;6.460;2022-10-26T20:07:38;13.80;99.90
51589;DHT22;37671;53.258;6.460;2022-10-26T20:10:04;13.80;99.90
51589;DHT22;37671;53.258;6.460;2022-10-26T20:12:29;13.70;99.90
51589;DHT22;37671;53.258;6.460;2022-10-26T20:14:55;13.60;99.90
51589;DHT22;37671;53.258;6.460;2022-10-26T20:17:21;13.60;99.90
51589;DHT22;37671;53.258;6.460;2022-10-26T20:19:46;13.60;99.90
51589;DHT22;37671;53.258;6.460;2022-10-26T20:22:12;13.60;99.90
51589;DHT22;37671;53.258;6.460;2022-10-26T20:24:37;13.70;99.90
51589;DHT22;37671;53.258;6.460;2022-10-26T20:27:03;13.50;99.90
51589;DHT22;37671;53.258;6.460;2022-10-26T20:29:28;13.60;99.90
51589;DHT22;37671;53.258;6.460;2022-10-26T20:31:54;13.60;99.90
51589;DHT22;37671;53.258;6.460;2022-10-26T20:34:19;13.60;99.90
51589;DHT22;37671;53.258;6.460;2022-10-26T20:36:45;14.00;99.90
51589;DHT22;37671;53.258;6.460;2022-10-26T20:39:10;13.60;99.90
51589;DHT22;37671;53.258;6.460;2022-10-26T20:41:39;13.40;99.90
51589;DHT22;37671;53.258;6.460;2022-10-26T20:44:08;13.40;99.90
51589;DHT22;37671;53.258;6.460;2022-10-26T20:46:36;13.30;99.90
51589;DHT22;37671;53.258;6.460;2022-10-26T20:49:02;13.30;99.90
51589;DHT22;37671;53.258;6.460;2022-10-26T20:54:09;13.30;99.90
51589;DHT22;37671;53.258;6.460;2022-10-26T20:56:35;13.40;99.90
51589;DHT22;37671;53.258;6.460;2022-10-26T20:59:04;13.30;99.90
51589;DHT22;37671;53.258;6.460;2022-10-26T21:01:31;13.30;99.90
51589;DHT22;37671;53.258;6.460;2022-10-26T21:03:58;13.30;99.90
51589;DHT22;37671;53.258;6.460;2022-10-26T21:06:24;13.30;99.90
51589;DHT22;37671;53.258;6.460;2022-10-26T21:08:51;13.30;99.90
51589;DHT22;37671;53.258;6.460;2022-10-26T21:11:17;13.20;99.90
51589;DHT22;37671;53.258;6.460;2022-10-26T21:13:43;13.20;99.90
51589;DHT22;37671;53.258;6.460;2022-10-26T21:16:09;13.20;99.90
51589;DHT22;37671;53.258;6.460;2022-10-26T21:18:35;13.90;99.90
51589;DHT22;37671;53.258;6.460;2022-10-26T21:21:00;13.00;99.90
51589;DHT22;37671;53.258;6.460;2022-10-26T21:23:30;13.00;99.90
51589;DHT22;37671;53.258;6.460;2022-10-26T21:25:55;13.00;99.90
51589;DHT22;37671;53.258;6.460;2022-10-26T21:28:21;13.10;99.90
51589;DHT22;37671;53.258;6.460;2022-10-26T21:30:46;12.90;99.90
51589;DHT22;37671;53.258;6.460;2022-10-26T21:33:12;13.50;99.90
51589;DHT22;37671;53.258;6.460;2022-10-26T21:35:38;12.80;99.90
51589;DHT22;37671;53.258;6.460;2022-10-26T21:38:03;12.80;99.90
51589;DHT22;37671;53.258;6.460;2022-10-26T21:40:29;12.80;99.90
51589;DHT22;37671;53.258;6.460;2022-10-26T21:42:54;12.80;99.90
51589;DHT22;37671;53.258;6.460;2022-10-26T21:45:21;12.70;99.90
51589;DHT22;37671;53.258;6.460;2022-10-26T21:47:52;12.70;99.90
51589;DHT22;37671;53.258;6.460;2022-10-26T21:50:18;12.60;99.90
51589;DHT22;37671;53.258;6.460;2022-10-26T21:52:44;12.60;99.90
51589;DHT22;37671;53.258;6.460;2022-10-26T21:55:09;12.60;99.90
51589;DHT22;37671;53.258;6.460;2022-10-26T21:57:37;12.60;99.90
51589;DHT22;37671;53.258;6.460;2022-10-26T22:00:02;12.60;99.90
51589;DHT22;37671;53.258;6.460;2022-10-26T22:02:28;12.60;99.90
51589;DHT22;37671;53.258;6.460;2022-10-26T22:04:53;12.50;99.90
51589;DHT22;37671;53.258;6.460;2022-10-26T22:07:19;12.60;99.90
51589;DHT22;37671;53.258;6.460;2022-10-26T22:09:45;12.50;99.90
51589;DHT22;37671;53.258;6.460;2022-10-26T22:12:10;12.60;99.90
51589;DHT22;37671;53.258;6.460;2022-10-26T22:14:36;12.50;99.90
51589;DHT22;37671;53.258;6.460;2022-10-26T22:17:01;12.50;99.90
51589;DHT22;37671;53.258;6.460;2022-10-26T22:19:27;12.50;99.90
51589;DHT22;37671;53.258;6.460;2022-10-26T22:21:52;12.50;99.90
51589;DHT22;37671;53.258;6.460;2022-10-26T22:24:18;12.40;99.90
51589;DHT22;37671;53.258;6.460;2022-10-26T22:26:43;12.40;99.90
51589;DHT22;37671;53.258;6.460;2022-10-26T22:29:09;12.30;99.90